createdAt,value
2022-09-12T00:01:19.513Z,93979.63
2022-09-12T00:03:46.240Z,93981.19
2022-09-12T00:06:21.959Z,93980.59
2022-09-12T00:08:49.758Z,93980.75
2022-09-12T00:11:16.395Z,93985.50
2022-09-12T00:13:44.340Z,93986.78
2022-09-12T00:16:21.835Z,93985.16
2022-09-12T00:18:49.332Z,93988.91
2022-09-12T00:21:21.542Z,93996.41
2022-09-12T00:23:48.737Z,94001.66
2022-09-12T00:26:17.290Z,93998.00
2022-09-12T00:28:44.693Z,93991.84
2022-09-12T00:31:14.283Z,93990.88
2022-09-12T00:33:41.356Z,93993.88
2022-09-12T00:36:13.025Z,93991.19
2022-09-12T00:38:42.192Z,93982.84
2022-09-12T00:41:21.397Z,93986.69
2022-09-12T00:43:51.176Z,93989.94
2022-09-12T00:46:39.553Z,93990.19
2022-09-12T00:49:17.124Z,93997.31
2022-09-12T00:51:49.578Z,93985.66
2022-09-12T00:54:21.547Z,93991.88
2022-09-12T00:56:53.871Z,93990.28
2022-09-12T00:59:30.111Z,93979.84
2022-09-12T01:01:57.177Z,93977.41
2022-09-12T01:04:26.052Z,93977.88
2022-09-12T01:06:54.517Z,93979.56
2022-09-12T01:09:23.287Z,93975.84
2022-09-12T01:11:51.333Z,93978.81
2022-09-12T01:14:20.355Z,93971.88
2022-09-12T01:16:49.989Z,93975.44
2022-09-12T01:19:25.192Z,93978.56
2022-09-12T01:22:10.243Z,93977.72
2022-09-12T01:24:54.039Z,93966.44
2022-09-12T01:27:51.727Z,93975.72
2022-09-12T01:30:33.397Z,93984.28
2022-09-12T01:33:44.633Z,93977.41
2022-09-12T01:36:38.526Z,93972.28
2022-09-12T01:39:12.887Z,93971.13
2022-09-12T01:41:42.420Z,93972.69
2022-09-12T01:44:23.133Z,93971.13
2022-09-12T01:47:25.155Z,93973.97
2022-09-12T01:50:07.976Z,93965.41
2022-09-12T01:52:37.664Z,93964.97
2022-09-12T01:55:10.387Z,93966.63
2022-09-12T01:57:51.186Z,93962.03
2022-09-12T02:00:18.056Z,93956.53
2022-09-12T02:03:10.391Z,93963.19
2022-09-12T02:05:45.243Z,93971.53
2022-09-12T02:08:19.306Z,93964.50
2022-09-12T02:11:10.577Z,93968.19
2022-09-12T02:13:49.986Z,93969.06
2022-09-12T02:16:22.440Z,93969.41
2022-09-12T02:18:57.885Z,93971.75
2022-09-12T02:21:27.578Z,93956.31
2022-09-12T02:23:58.472Z,93959.72
2022-09-12T02:26:32.981Z,93965.94
2022-09-12T02:28:59.908Z,93966.66
2022-09-12T02:31:42.752Z,93962.78
2022-09-12T02:34:49.539Z,93964.00
2022-09-12T02:37:25.969Z,93965.53
2022-09-12T02:39:55.211Z,93963.16
2022-09-12T02:42:22.732Z,93963.56
2022-09-12T02:44:51.625Z,93958.91
2022-09-12T02:47:49.421Z,93966.97
2022-09-12T02:50:16.950Z,93966.59
2022-09-12T02:52:44.322Z,93968.19
2022-09-12T02:55:12.223Z,93971.38
2022-09-12T02:57:39.134Z,93970.53
2022-09-12T03:00:06.730Z,93971.66
2022-09-12T03:02:59.285Z,93966.66
2022-09-12T03:05:33.506Z,93967.44
2022-09-12T03:08:40.455Z,93974.81
2022-09-12T03:11:14.671Z,93976.78
2022-09-12T03:14:02.600Z,93978.28
2022-09-12T03:16:40.765Z,93982.88
2022-09-12T03:19:34.304Z,93982.91
2022-09-12T03:22:25.423Z,93981.34
2022-09-12T03:25:14.337Z,93977.84
2022-09-12T03:27:52.437Z,93985.25
2022-09-12T03:30:19.153Z,93983.31
2022-09-12T03:32:49.217Z,93989.09
2022-09-12T03:35:22.866Z,93985.25
2022-09-12T03:37:51.218Z,93974.38
2022-09-12T03:40:17.986Z,93980.16
2022-09-12T03:42:44.644Z,93979.06
2022-09-12T03:45:12.112Z,93981.78
2022-09-12T03:47:39.568Z,93970.97
2022-09-12T03:50:06.786Z,93968.19
2022-09-12T03:52:33.577Z,93972.06
2022-09-12T03:55:00.458Z,93970.47
2022-09-12T03:57:27.106Z,93974.69
2022-09-12T03:59:54.080Z,93980.09
2022-09-12T04:02:21.289Z,93980.44
2022-09-12T04:04:48.918Z,93978.88
2022-09-12T04:07:19.192Z,93981.56
2022-09-12T04:09:45.799Z,93989.81
2022-09-12T04:12:14.101Z,93986.28
2022-09-12T04:14:40.803Z,93976.50
2022-09-12T04:17:07.671Z,93993.59
2022-09-12T04:19:34.412Z,93989.75
2022-09-12T04:22:01.059Z,93988.22
2022-09-12T04:24:27.666Z,93988.28
2022-09-12T04:26:54.298Z,93989.34
2022-09-12T04:29:20.943Z,94000.19
2022-09-12T04:31:47.680Z,94005.91
2022-09-12T04:34:15.250Z,94005.97
2022-09-12T04:36:42.240Z,94011.31
2022-09-12T04:39:10.098Z,94005.81
2022-09-12T04:41:38.829Z,94001.06
2022-09-12T04:44:12.485Z,93999.56
2022-09-12T04:46:42.620Z,94009.41
2022-09-12T04:49:09.743Z,94009.44
2022-09-12T04:51:38.421Z,94015.22
2022-09-12T04:54:08.307Z,94012.06
2022-09-12T04:56:39.219Z,94005.72
2022-09-12T04:59:06.922Z,94012.13
2022-09-12T05:01:33.744Z,94017.50
2022-09-12T05:04:00.640Z,94017.06
2022-09-12T05:06:31.677Z,94022.41
2022-09-12T05:08:59.752Z,94015.75
2022-09-12T05:12:02.613Z,94019.44
2022-09-12T05:14:24.620Z,94015.53
2022-09-12T05:16:51.213Z,94013.84
2022-09-12T05:19:18.123Z,94014.94
2022-09-12T05:21:44.726Z,94011.25
2022-09-12T05:24:11.668Z,94010.09
2022-09-12T05:26:38.626Z,94002.94
2022-09-12T05:29:06.144Z,94009.56
2022-09-12T05:31:32.974Z,94004.00
2022-09-12T05:33:59.531Z,94019.69
2022-09-12T05:36:30.451Z,94012.34
2022-09-12T05:38:59.749Z,94004.22
2022-09-12T05:41:29.586Z,94004.47
2022-09-12T05:44:01.294Z,94007.97
2022-09-12T05:46:30.145Z,94009.84
2022-09-12T05:48:58.394Z,94009.44
2022-09-12T05:51:27.243Z,94006.44
2022-09-12T05:53:59.250Z,93995.53
2022-09-12T05:56:31.752Z,93993.22
2022-09-12T05:59:01.037Z,93992.13
2022-09-12T06:01:29.545Z,93995.50
2022-09-12T06:04:00.834Z,93980.41
2022-09-12T06:06:29.339Z,93986.13
2022-09-12T06:09:02.151Z,93982.94
2022-09-12T06:11:31.110Z,94001.13
2022-09-12T06:13:58.598Z,93986.06
2022-09-12T06:16:30.499Z,93995.94
2022-09-12T06:19:00.019Z,93988.00
2022-09-12T06:21:27.092Z,93985.06
2022-09-12T06:23:55.022Z,93987.53
2022-09-12T06:26:23.563Z,93995.34
2022-09-12T06:28:50.805Z,93998.13
2022-09-12T06:31:22.248Z,94005.31
2022-09-12T06:33:50.875Z,94004.19
2022-09-12T06:36:25.678Z,94005.03
2022-09-12T06:39:01.139Z,94017.41
2022-09-12T06:41:29.316Z,94018.25
2022-09-12T06:43:56.190Z,94013.94
2022-09-12T06:46:23.191Z,94012.78
2022-09-12T06:48:50.612Z,94020.78
2022-09-12T06:51:20.057Z,94020.50
2022-09-12T06:53:47.625Z,94016.63
2022-09-12T06:56:19.586Z,94026.44
2022-09-12T06:58:47.524Z,94026.84
2022-09-12T07:01:24.908Z,94026.56
2022-09-12T07:03:56.579Z,94029.00
2022-09-12T07:06:37.716Z,94039.56
2022-09-12T07:09:06.306Z,94030.34
2022-09-12T07:11:35.261Z,94029.75
2022-09-12T07:14:04.076Z,94037.06
2022-09-12T07:16:30.867Z,94040.59
2022-09-12T07:19:00.152Z,94035.38
2022-09-12T07:21:27.581Z,94038.28
2022-09-12T07:24:00.637Z,94039.16
2022-09-12T07:26:29.242Z,94039.28
2022-09-12T07:29:12.877Z,94039.47
2022-09-12T07:31:44.717Z,94047.44
2022-09-12T07:34:11.424Z,94036.25
2022-09-12T07:36:38.719Z,94057.91
2022-09-12T07:39:05.982Z,94047.72
2022-09-12T07:41:37.205Z,94044.84
2022-09-12T07:44:05.068Z,94042.91
2022-09-12T07:46:32.042Z,94033.91
2022-09-12T07:49:00.181Z,94036.44
2022-09-12T07:51:28.496Z,94040.81
2022-09-12T07:53:56.433Z,94030.84
2022-09-12T07:56:28.798Z,94033.31
2022-09-12T07:58:57.005Z,94032.28
2022-09-12T08:01:23.735Z,94032.78
2022-09-12T08:03:54.496Z,94044.91
2022-09-12T08:06:24.320Z,94032.66
2022-09-12T08:08:52.730Z,94041.28
2022-09-12T08:11:23.543Z,94045.31
2022-09-12T08:13:55.434Z,94045.97
2022-09-12T08:16:24.965Z,94048.56
2022-09-12T08:18:51.824Z,94037.72
2022-09-12T08:21:22.711Z,94041.72
2022-09-12T08:24:00.961Z,94038.38
2022-09-12T08:26:28.375Z,94037.28
2022-09-12T08:28:55.287Z,94045.00
2022-09-12T08:31:24.472Z,94037.78
2022-09-12T08:33:51.871Z,94043.69
2022-09-12T08:36:21.482Z,94025.31
2022-09-12T08:38:50.841Z,94036.22
2022-09-12T08:41:43.494Z,94040.91
2022-09-12T08:44:31.657Z,94041.25
2022-09-12T08:47:22.747Z,94028.09
2022-09-12T08:50:10.904Z,94035.09
2022-09-12T08:52:43.477Z,94025.16
2022-09-12T08:55:28.118Z,94024.38
2022-09-12T08:57:54.883Z,94026.16
2022-09-12T09:00:22.088Z,94025.72
2022-09-12T09:03:50.455Z,94018.88
2022-09-12T09:06:26.954Z,94020.88
2022-09-12T09:09:12.213Z,94015.13
2022-09-12T09:11:48.236Z,94027.00
2022-09-12T09:14:56.553Z,94019.22
2022-09-12T09:17:29.730Z,94020.69
2022-09-12T09:20:03.358Z,94013.16
2022-09-12T09:22:46.160Z,94015.81
2022-09-12T09:25:35.868Z,94018.38
2022-09-12T09:28:06.921Z,94019.81
2022-09-12T09:30:36.059Z,94016.34
2022-09-12T09:33:04.968Z,94023.41
2022-09-12T09:35:48.854Z,94019.97
2022-09-12T09:38:36.799Z,93997.63
2022-09-12T09:41:46.973Z,94004.28
2022-09-12T09:44:13.757Z,94007.94
2022-09-12T09:46:40.461Z,93998.66
2022-09-12T09:49:12.042Z,94006.47
2022-09-12T09:51:40.792Z,94003.72
2022-09-12T09:54:13.222Z,93996.63
2022-09-12T09:56:42.559Z,94005.44
2022-09-12T09:59:27.189Z,94005.09
2022-09-12T10:01:57.863Z,93997.16
2022-09-12T10:04:27.973Z,93995.00
2022-09-12T10:06:58.045Z,93999.94
2022-09-12T10:09:33.230Z,94010.38
2022-09-12T10:12:04.878Z,93990.47
2022-09-12T10:14:36.813Z,93998.19
2022-09-12T10:17:34.229Z,93984.28
2022-09-12T10:20:21.443Z,93993.31
2022-09-12T10:22:49.087Z,93978.25
2022-09-12T10:25:19.397Z,93982.72
2022-09-12T10:27:54.239Z,93978.78
2022-09-12T10:30:24.916Z,93979.38
2022-09-12T10:32:52.042Z,93982.06
2022-09-12T10:35:20.755Z,93977.34
2022-09-12T10:38:07.271Z,93997.66
2022-09-12T10:40:40.885Z,93986.69
2022-09-12T10:43:25.543Z,93987.28
2022-09-12T10:45:55.481Z,93995.09
2022-09-12T10:48:24.868Z,93992.13
2022-09-12T10:50:51.991Z,93984.09
2022-09-12T10:53:25.189Z,93985.09
2022-09-12T10:56:09.581Z,93984.94
2022-09-12T10:58:41.929Z,93985.34
2022-09-12T11:01:14.648Z,93990.84
2022-09-12T11:04:26.054Z,93996.09
2022-09-12T11:07:17.493Z,93970.19
2022-09-12T11:09:55.967Z,93981.75
2022-09-12T11:12:41.581Z,93987.50
2022-09-12T11:15:23.244Z,93985.25
2022-09-12T11:18:25.168Z,93992.50
2022-09-12T11:21:26.822Z,93970.81
2022-09-12T11:24:20.799Z,93984.47
2022-09-12T11:27:11.967Z,93974.31
2022-09-12T11:29:49.145Z,93979.72
2022-09-12T11:32:51.071Z,93974.25
2022-09-12T11:35:29.854Z,93976.03
2022-09-12T11:38:25.631Z,93980.56
2022-09-12T11:41:21.278Z,93993.94
2022-09-12T11:44:01.491Z,93989.97
2022-09-12T11:46:36.370Z,93989.09
2022-09-12T11:49:15.603Z,93982.94
2022-09-12T11:51:58.087Z,93988.97
2022-09-12T11:54:29.717Z,93984.22
2022-09-12T11:57:18.625Z,93973.69
2022-09-12T11:59:58.482Z,93969.72
2022-09-12T12:02:39.447Z,93975.28
2022-09-12T12:05:15.103Z,93971.13
2022-09-12T12:07:45.562Z,93973.75
2022-09-12T12:10:27.273Z,93972.19
2022-09-12T12:12:56.610Z,93971.25
2022-09-12T12:15:25.683Z,93966.53
2022-09-12T12:18:17.655Z,93965.84
2022-09-12T12:20:44.671Z,93962.72
2022-09-12T12:23:27.032Z,93966.31
2022-09-12T12:25:58.944Z,93962.72
2022-09-12T12:28:50.642Z,93960.03
2022-09-12T12:31:18.531Z,93959.41
2022-09-12T12:33:45.188Z,93958.44
2022-09-12T12:36:36.773Z,93966.91
2022-09-12T12:39:31.515Z,93960.31
2022-09-12T12:42:01.625Z,93954.19
2022-09-12T12:44:48.602Z,93957.66
2022-09-12T12:47:38.222Z,93961.81
2022-09-12T12:50:04.916Z,93962.75
2022-09-12T12:52:41.858Z,93977.16
2022-09-12T12:55:20.306Z,93976.06
2022-09-12T12:58:07.598Z,93971.06
2022-09-12T13:00:39.702Z,93972.72
2022-09-12T13:03:09.530Z,93977.53
2022-09-12T13:05:46.255Z,93984.00
2022-09-12T13:08:19.022Z,93970.88
2022-09-12T13:10:59.685Z,93984.53
2022-09-12T13:13:52.974Z,93964.84
2022-09-12T13:16:37.747Z,93953.88
2022-09-12T13:19:18.247Z,93965.19
2022-09-12T13:22:01.091Z,93959.50
2022-09-12T13:24:28.242Z,93958.03
2022-09-12T13:26:55.407Z,93960.50
2022-09-12T13:29:25.154Z,93959.25
2022-09-12T13:31:56.019Z,93945.50
2022-09-12T13:34:26.092Z,93957.16
2022-09-12T13:37:28.045Z,93952.94
2022-09-12T13:40:39.318Z,93947.91
2022-09-12T13:43:08.520Z,93954.56
2022-09-12T13:45:42.168Z,93949.97
2022-09-12T13:48:16.999Z,93959.59
2022-09-12T13:50:53.978Z,93953.09
2022-09-12T13:53:24.142Z,93951.13
2022-09-12T13:55:56.388Z,93958.44
2022-09-12T13:58:26.388Z,93961.47
2022-09-12T14:01:07.367Z,93948.25
2022-09-12T14:04:08.731Z,93961.38
2022-09-12T14:06:57.402Z,93957.72
2022-09-12T14:09:31.160Z,93959.56
2022-09-12T14:11:58.866Z,93956.88
2022-09-12T14:14:34.316Z,93942.72
2022-09-12T14:17:00.967Z,93957.47
2022-09-12T14:19:29.338Z,93947.69
2022-09-12T14:21:59.102Z,93951.84
2022-09-12T14:24:26.187Z,93947.66
2022-09-12T14:26:55.642Z,93951.25
2022-09-12T14:29:23.930Z,93960.19
2022-09-12T14:32:02.931Z,93953.56
2022-09-12T14:34:29.984Z,93962.84
2022-09-12T14:36:57.854Z,93950.41
2022-09-12T14:39:43.334Z,93947.63
2022-09-12T14:42:22.369Z,93958.66
2022-09-12T14:44:58.743Z,93955.34
2022-09-12T14:47:28.198Z,93958.69
2022-09-12T14:49:55.006Z,93952.00
2022-09-12T14:52:26.420Z,93963.94
2022-09-12T14:55:29.689Z,93970.69
2022-09-12T14:58:21.093Z,93961.13
2022-09-12T15:01:00.100Z,93961.06
2022-09-12T15:03:51.720Z,93962.53
2022-09-12T15:06:40.123Z,93958.75
2022-09-12T15:09:12.375Z,93960.41
2022-09-12T15:11:39.485Z,93964.88
2022-09-12T15:14:13.798Z,93958.38
2022-09-12T15:16:40.405Z,93961.38
2022-09-12T15:19:07.066Z,93959.56
2022-09-12T15:21:33.684Z,93954.56
2022-09-12T15:24:00.302Z,93962.13
2022-09-12T15:26:30.608Z,93952.19
2022-09-12T15:28:57.673Z,93957.84
2022-09-12T15:31:31.988Z,93963.22
2022-09-12T15:34:00.712Z,93960.31
2022-09-12T15:36:28.949Z,93955.63
2022-09-12T15:38:56.001Z,93954.31
2022-09-12T15:41:29.277Z,93955.06
2022-09-12T15:43:56.812Z,93958.47
2022-09-12T15:46:24.008Z,93950.19
2022-09-12T15:48:50.865Z,93957.25
2022-09-12T15:51:20.089Z,93950.91
2022-09-12T15:53:48.223Z,93950.25
2022-09-12T15:56:16.492Z,93954.44
2022-09-12T15:58:57.772Z,93954.75
2022-09-12T16:01:25.321Z,93959.44
2022-09-12T16:03:52.181Z,93953.19
2022-09-12T16:06:18.837Z,93954.31
2022-09-12T16:08:46.271Z,93954.25
2022-09-12T16:11:26.985Z,93955.72
2022-09-12T16:13:54.370Z,93953.47
2022-09-12T16:16:21.495Z,93949.22
2022-09-12T16:18:48.248Z,93960.22
2022-09-12T16:21:15.882Z,93954.09
2022-09-12T16:23:46.970Z,93952.63
2022-09-12T16:26:14.508Z,93952.19
2022-09-12T16:28:41.428Z,93955.28
2022-09-12T16:31:10.408Z,93956.56
2022-09-12T16:33:38.240Z,93956.81
2022-09-12T16:36:10.228Z,93967.22
2022-09-12T16:38:44.417Z,93967.53
2022-09-12T16:41:11.908Z,93964.16
2022-09-12T16:43:39.069Z,93966.81
2022-09-12T16:46:08.574Z,93965.31
2022-09-12T16:48:37.246Z,93966.88
2022-09-12T16:51:06.986Z,93976.06
2022-09-12T16:53:36.770Z,93969.63
2022-09-12T16:56:07.274Z,93974.78
2022-09-12T16:58:41.922Z,93975.78
2022-09-12T17:01:13.828Z,93983.06
2022-09-12T17:03:40.859Z,93980.41
2022-09-12T17:06:13.009Z,93988.69
2022-09-12T17:08:45.556Z,93980.53
2022-09-12T17:11:17.746Z,93976.13
2022-09-12T17:14:06.927Z,93987.16
2022-09-12T17:16:36.652Z,93986.69
2022-09-12T17:19:04.516Z,93989.75
2022-09-12T17:21:31.952Z,93998.88
2022-09-12T17:23:59.443Z,93987.09
2022-09-12T17:26:26.832Z,93990.88
2022-09-12T17:28:53.645Z,93998.25
2022-09-12T17:31:20.407Z,94000.66
2022-09-12T17:33:47.252Z,94001.34
2022-09-12T17:36:16.897Z,94015.56
2022-09-12T17:38:45.263Z,94008.09
2022-09-12T17:41:18.116Z,94011.38
2022-09-12T17:43:50.350Z,94008.03
2022-09-12T17:46:22.310Z,94003.28
2022-09-12T17:48:56.409Z,94006.03
2022-09-12T17:51:25.878Z,94003.00
2022-09-12T17:54:02.327Z,94007.00
2022-09-12T17:56:31.566Z,94009.38
2022-09-12T17:58:59.520Z,94012.56
2022-09-12T18:01:47.037Z,94016.41
2022-09-12T18:04:15.331Z,94018.78
2022-09-12T18:06:48.967Z,94018.91
2022-09-12T18:09:18.656Z,94023.00
2022-09-12T18:11:46.152Z,94020.41
2022-09-12T18:14:14.352Z,94014.19
2022-09-12T18:16:41.646Z,94010.81
2022-09-12T18:19:08.350Z,94015.38
2022-09-12T18:21:35.137Z,94018.22
2022-09-12T18:24:03.459Z,94024.97
2022-09-12T18:26:31.488Z,94022.56
2022-09-12T18:28:59.540Z,94022.78
2022-09-12T18:31:29.147Z,94026.38
2022-09-12T18:33:56.332Z,94022.13
2022-09-12T18:36:23.700Z,94025.16
2022-09-12T18:38:50.389Z,94024.09
2022-09-12T18:41:19.852Z,94024.94
2022-09-12T18:43:47.352Z,94029.00
2022-09-12T18:46:20.110Z,94019.97
2022-09-12T18:48:46.956Z,94027.94
2022-09-12T18:51:16.471Z,94024.19
2022-09-12T18:53:43.893Z,94025.16
2022-09-12T18:56:12.726Z,94025.59
2022-09-12T18:58:42.625Z,94022.97
2022-09-12T19:01:11.798Z,94020.66
2022-09-12T19:03:40.082Z,94024.56
2022-09-12T19:06:12.210Z,94023.19
2022-09-12T19:08:39.238Z,94024.91
2022-09-12T19:11:06.569Z,94020.75
2022-09-12T19:13:38.728Z,94019.34
2022-09-12T19:16:09.206Z,94025.19
2022-09-12T19:18:37.147Z,94031.72
2022-09-12T19:21:05.140Z,94023.63
2022-09-12T19:23:33.174Z,94023.78
2022-09-12T19:26:03.677Z,94027.13
2022-09-12T19:28:31.243Z,94035.97
2022-09-12T19:30:59.917Z,94028.06
2022-09-12T19:33:26.504Z,94024.19
2022-09-12T19:35:53.180Z,94025.56
2022-09-12T19:38:19.763Z,94016.53
2022-09-12T19:40:57.380Z,94016.69
2022-09-12T19:43:24.372Z,94020.63
2022-09-12T19:45:52.040Z,94023.69
2022-09-12T19:48:19.995Z,94022.22
2022-09-12T19:50:46.850Z,94021.97
2022-09-12T19:53:15.615Z,94023.41
2022-09-12T19:55:42.856Z,94032.53
2022-09-12T19:58:09.833Z,94034.66
2022-09-12T20:00:37.385Z,94036.13
2022-09-12T20:03:05.865Z,94030.78
2022-09-12T20:05:33.506Z,94028.69
2022-09-12T20:08:00.848Z,94031.75
2022-09-12T20:10:27.560Z,94034.59
2022-09-12T20:12:54.201Z,94034.31
2022-09-12T20:15:20.963Z,94027.34
2022-09-12T20:17:47.568Z,94028.19
2022-09-12T20:20:14.222Z,94033.53
2022-09-12T20:22:40.857Z,94023.09
2022-09-12T20:25:08.098Z,94031.41
2022-09-12T20:27:34.889Z,94024.91
2022-09-12T20:30:01.536Z,94026.50
2022-09-12T20:32:29.076Z,94026.00
2022-09-12T20:34:56.472Z,94029.00
2022-09-12T20:37:23.719Z,94030.75
2022-09-12T20:39:51.081Z,94028.81
2022-09-12T20:42:17.969Z,94030.09
2022-09-12T20:44:44.691Z,94030.19
2022-09-12T20:47:11.459Z,94032.34
2022-09-12T20:49:38.106Z,94036.31
2022-09-12T20:52:04.773Z,94034.84
2022-09-12T20:54:31.383Z,94041.50
2022-09-12T20:56:58.012Z,94041.38
2022-09-12T20:59:24.601Z,94041.91
2022-09-12T21:01:51.397Z,94035.84
2022-09-12T21:04:18.553Z,94040.47
2022-09-12T21:06:45.203Z,94041.59
2022-09-12T21:09:11.866Z,94038.41
2022-09-12T21:11:38.437Z,94038.22
2022-09-12T21:14:05.181Z,94041.78
2022-09-12T21:16:38.369Z,94042.75
2022-09-12T21:19:06.567Z,94045.53
2022-09-12T21:21:33.231Z,94042.84
2022-09-12T21:24:02.705Z,94043.97
2022-09-12T21:26:30.189Z,94045.50
2022-09-12T21:28:57.480Z,94046.19
2022-09-12T21:31:24.476Z,94047.94
2022-09-12T21:33:51.932Z,94048.25
2022-09-12T21:36:18.577Z,94041.47
2022-09-12T21:38:45.165Z,94046.66
2022-09-12T21:41:14.008Z,94050.56
2022-09-12T21:43:41.523Z,94050.25
2022-09-12T21:46:08.904Z,94051.94
2022-09-12T21:48:36.032Z,94060.91
2022-09-12T21:51:03.483Z,94052.44
2022-09-12T21:53:31.143Z,94047.78
2022-09-12T21:56:02.642Z,94045.44
2022-09-12T21:58:29.267Z,94044.25
2022-09-12T22:00:56.305Z,94052.41
2022-09-12T22:03:22.946Z,94049.25
2022-09-12T22:06:02.218Z,94039.44
2022-09-12T22:08:30.907Z,94039.31
2022-09-12T22:11:02.613Z,94035.41
2022-09-12T22:13:32.380Z,94028.81
2022-09-12T22:16:01.140Z,94033.41
2022-09-12T22:18:27.826Z,94044.56
2022-09-12T22:21:09.777Z,94036.97
2022-09-12T22:23:55.188Z,94032.00
2022-09-12T22:26:22.073Z,94044.06
2022-09-12T22:28:49.269Z,94034.66
2022-09-12T22:31:17.077Z,94042.31
2022-09-12T22:33:43.830Z,94033.53
2022-09-12T22:36:10.551Z,94044.28
2022-09-12T22:38:37.631Z,94038.94
2022-09-12T22:41:09.412Z,94032.13
2022-09-12T22:43:36.647Z,94034.56
2022-09-12T22:46:12.289Z,94037.91
2022-09-12T22:48:39.563Z,94031.03
2022-09-12T22:51:06.856Z,94027.94
2022-09-12T22:53:34.357Z,94028.88
2022-09-12T22:56:02.255Z,94026.91
2022-09-12T22:58:29.087Z,94031.03
2022-09-12T23:00:55.893Z,94029.88
2022-09-12T23:03:22.605Z,94024.34
2022-09-12T23:05:49.305Z,94029.19
2022-09-12T23:08:17.846Z,94017.25
2022-09-12T23:10:44.480Z,94028.91
2022-09-12T23:13:11.211Z,94010.59
2022-09-12T23:15:37.970Z,94017.19
2022-09-12T23:18:05.236Z,94009.91
2022-09-12T23:20:31.963Z,94014.44
2022-09-12T23:22:58.639Z,94002.44
2022-09-12T23:25:26.228Z,94010.72
2022-09-12T23:27:53.551Z,94015.75
2022-09-12T23:30:21.606Z,94017.34
2022-09-12T23:32:49.156Z,94007.34
2022-09-12T23:35:19.538Z,94004.94
2022-09-12T23:37:46.887Z,94007.38
2022-09-12T23:40:13.846Z,94010.59
2022-09-12T23:42:40.500Z,94004.72
2022-09-12T23:45:07.583Z,94002.47
2022-09-12T23:47:34.190Z,94001.13
2022-09-12T23:50:00.924Z,93995.09
2022-09-12T23:52:27.468Z,94002.47
2022-09-12T23:54:54.103Z,94002.66
2022-09-12T23:57:20.988Z,93998.72
2022-09-12T23:59:47.724Z,93997.28
